• Join FlightAware (Why Join?)
  • Login
  • US Flag 
10:21AM EDT


 

Airport Tracker/Info


-or-


 

Live Flight TrackerFlight Track Log ✈ TYR850 ✈ 23-Jul-2013 ✈ LATI / TIA - LOWW / VIE

Flight Track Log - Related Links

Times and Time Zones

All times are in EDT time to prevent confusion due to time zone crossing. See the TYR850 flight status page for this flight to view local times or setup timezone preferences in your user account.

Time Position Orientation Groundspeed Altitude Reporting Facility
EDT Latitude Longitude Course Direction KTS MPH feet Rate Location/Type
10:42PM 42.8160 19.1221 343° North  Level Estimated
10:43PM 42.9093 19.0812 342° North  Level Estimated
10:44PM 43.0026 19.0403 342° North  Level Estimated
10:45PM 43.0958 18.9992 342° North  Level Estimated
10:46PM 43.1891 18.9579 342° North  Level Estimated
10:47PM 43.2823 18.9166 342° North  Level Estimated
10:48PM 43.3756 18.8751 342° North  Level Estimated
10:49PM 43.4688 18.8335 342° North  Level Estimated
10:50PM 43.5620 18.7918 342° North  Level Estimated
10:51PM 43.6552 18.7499 342° North  Level Estimated
10:52PM 43.7483 18.7079 342° North  Level Estimated
10:53PM 43.8415 18.6658 342° North  Level Estimated
10:54PM 43.9346 18.6235 342° North  Level Estimated
10:55PM 44.0277 18.5811 342° North  Level Estimated
10:56PM 44.1208 18.5386 342° North  Level Estimated
10:57PM 44.2139 18.4959 342° North  Level Estimated
10:58PM 44.3070 18.4531 342° North  Level Estimated
10:59PM 44.4001 18.4102 342° North  Level Estimated
11:00PM 44.4931 18.3671 342° North  Level Estimated
11:01PM 44.5861 18.3239 342° North  Level Estimated
11:02PM 44.6791 18.2806 342° North  Level Estimated
11:03PM 44.7721 18.2371 342° North  Level Estimated
11:04PM 44.8651 18.1935 342° North  Level Estimated
11:05PM 44.9581 18.1497 342° North  Level Estimated
11:06PM 45.0510 18.1058 342° North  Level Estimated
11:07PM 45.1440 18.0618 342° North  Level Estimated
11:08PM 45.2369 18.0176 341° North  Level Estimated
11:09PM 45.3298 17.9732 341° North  Level Estimated
11:10PM 45.4226 17.9287 341° North  Level Estimated
11:11PM 45.5155 17.8841 341° North  Level Estimated
11:12PM 45.6083 17.8393 341° North  Level Estimated
11:13PM 45.7011 17.7944 341° North  Level Estimated
11:14PM 45.7940 17.7493 341° North  Level Estimated
11:15PM 45.8867 17.7041 341° North  Level Estimated
11:16PM 45.9795 17.6587 341° North  Level Estimated
11:17PM 46.0723 17.6132 341° North  Level Estimated
11:18PM 46.1650 17.5675 341° North  Level Estimated
11:19PM 46.2577 17.5217 341° North  Level Estimated
11:20PM 46.3504 17.4757 341° North  Level Estimated
11:21PM 46.4431 17.4295 341° North  Level Estimated
11:22PM 46.5358 17.3832 341° North  Level Estimated
11:23PM 46.6284 17.3368 341° North  Level Estimated
11:24PM 46.7210 17.2901 341° North  Level Estimated
11:25PM 46.8136 17.2433 341° North  Level Estimated
11:26PM 46.9062 17.1964 341° North  Level Estimated
11:27PM 46.9988 17.1493 341° North  Level Estimated
11:28PM 47.0913 17.1020 341° North  Level Estimated
11:29PM 47.1838 17.0546 341° North  Level Estimated
11:30PM 47.2763 17.0070 341° North  Level Estimated
11:31PM 47.3688 16.9592 341° North  Level Estimated
11:32PM 47.4613 16.9113 341° North  Level Estimated
11:33PM 47.5538 16.8632 341° North  Level Estimated
11:34PM 47.6462 16.8149 341° North  Level Estimated
11:35PM 47.7386 16.7665 341° North  Level Estimated
11:36PM 47.8310 16.7178 341° North  Level Estimated
11:37PM 47.9234 16.6690 341° North  Level Estimated
11:38PM 48.0157 16.6201 340° North  Level Estimated
11:39PM 48.1080 16.5709 340° North  Level Estimated
11:40PM 48.1103 16.5697 340° North  Level Estimated
11:41PM 48.1103 16.5697 146° Southeast  Level Estimated
11:42PM 48.1103 16.5697 146° Southeast  Level Estimated
11:43PM 48.1103 16.5697 146° Southeast  Level Estimated
11:44PM 48.1103 16.5697 146° Southeast  Level Estimated
11:45PM 48.1103 16.5697 146° Southeast  Level Estimated
11:46PM 48.1103 16.5697 146° Southeast  Level Estimated
11:47PM 48.1103 16.5697 146° Southeast  Level Estimated
11:48PM 48.1103 16.5697 146° Southeast  Level Estimated
11:49PM 48.1103 16.5697 146° Southeast  Level Estimated
11:50PM 48.1103 16.5697 146° Southeast  Level Estimated
11:51PM 48.1103 16.5697 146° Southeast  Level Estimated
11:52PM 48.1103 16.5697 146° Southeast  Level Estimated
11:53PM 48.1103 16.5697 146° Southeast  Level Estimated
11:54PM 48.1103 16.5697 146° Southeast  Level Estimated